createdAt,value
2023-02-24T00:00:38.343Z,9.70
2023-02-24T00:03:11.135Z,9.60
2023-02-24T00:05:44.461Z,9.50
2023-02-24T00:08:14.018Z,9.60
2023-02-24T00:10:42.916Z,9.90
2023-02-24T00:13:12.232Z,9.50
2023-02-24T00:15:40.919Z,9.50
2023-02-24T00:18:09.201Z,9.50
2023-02-24T00:20:37.613Z,9.50
2023-02-24T00:23:06.541Z,9.50
2023-02-24T00:25:36.267Z,9.40
2023-02-24T00:28:04.752Z,9.50
2023-02-24T00:30:33.339Z,9.50
2023-02-24T00:33:03.455Z,9.50
2023-02-24T00:35:32.347Z,9.40
2023-02-24T00:38:00.913Z,9.40
2023-02-24T00:40:30.781Z,9.40
2023-02-24T00:43:02.645Z,9.40
2023-02-24T00:45:33.928Z,9.30
2023-02-24T00:48:04.584Z,9.30
2023-02-24T00:50:33.197Z,9.30
2023-02-24T00:53:01.580Z,9.30
2023-02-24T00:55:36.313Z,9.40
2023-02-24T00:58:07.463Z,9.30
2023-02-24T01:01:15.119Z,9.30
2023-02-24T01:08:21.768Z,9.10
2023-02-24T01:19:25.836Z,9.10
2023-02-24T01:21:55.250Z,9.20
2023-02-24T01:24:23.844Z,9.10
2023-02-24T01:26:52.252Z,9.00
2023-02-24T01:29:22.600Z,9.00
2023-02-24T01:31:51.857Z,9.00
2023-02-24T01:34:20.402Z,9.10
2023-02-24T01:36:49.824Z,9.10
2023-02-24T01:39:21.883Z,9.00
2023-02-24T01:41:53.252Z,9.00
2023-02-24T01:45:00.266Z,9.00
2023-02-24T01:47:31.277Z,8.90
2023-02-24T01:49:59.828Z,9.00
2023-02-24T01:52:34.608Z,9.30
2023-02-24T01:55:09.412Z,9.00
2023-02-24T01:57:39.713Z,9.00
2023-02-24T02:00:12.694Z,9.00
2023-02-24T02:02:47.920Z,9.00
2023-02-24T02:05:16.180Z,9.00
2023-02-24T02:07:46.985Z,9.10
2023-02-24T02:10:15.481Z,8.90
2023-02-24T02:12:45.110Z,8.90
2023-02-24T02:15:15.860Z,8.90
2023-02-24T02:17:55.983Z,8.90
2023-02-24T02:20:44.369Z,8.90
2023-02-24T02:23:55.758Z,8.80
2023-02-24T02:26:47.396Z,8.90
2023-02-24T02:29:33.881Z,8.80
2023-02-24T02:32:25.647Z,8.70
2023-02-24T02:35:00.090Z,8.80
2023-02-24T02:37:34.331Z,8.90
2023-02-24T02:40:15.312Z,8.80
2023-02-24T02:42:48.332Z,8.70
2023-02-24T02:45:23.061Z,8.80
2023-02-24T02:47:53.961Z,8.70
2023-02-24T02:50:28.520Z,8.70
2023-02-24T02:53:00.682Z,8.70
2023-02-24T02:55:39.219Z,8.80
2023-02-24T02:58:14.728Z,8.70
2023-02-24T03:00:50.312Z,8.60
2023-02-24T03:03:20.540Z,8.60
2023-02-24T03:05:56.161Z,8.60
2023-02-24T03:08:27.589Z,8.70
2023-02-24T03:11:00.559Z,8.70
2023-02-24T03:13:32.968Z,8.80
2023-02-24T03:16:02.730Z,8.70
2023-02-24T03:18:34.653Z,8.60
2023-02-24T03:21:08.623Z,8.60
2023-02-24T03:23:45.817Z,8.60
2023-02-24T03:26:22.019Z,8.60
2023-02-24T03:28:59.657Z,8.60
2023-02-24T03:31:34.920Z,8.50
2023-02-24T03:34:10.130Z,8.60
2023-02-24T03:36:39.940Z,8.60
2023-02-24T03:39:11.467Z,8.60
2023-02-24T03:41:50.761Z,8.50
2023-02-24T03:44:18.953Z,8.50
2023-02-24T03:46:47.712Z,8.50
2023-02-24T03:49:17.403Z,8.50
2023-02-24T03:52:08.739Z,8.40
2023-02-24T03:54:53.783Z,8.40
2023-02-24T03:57:34.942Z,8.50
2023-02-24T04:00:22.646Z,8.70
2023-02-24T04:03:04.849Z,8.40
2023-02-24T04:05:38.151Z,8.40
2023-02-24T04:08:10.435Z,8.40
2023-02-24T04:10:52.652Z,8.30
2023-02-24T04:13:35.689Z,8.30
2023-02-24T04:16:18.455Z,8.30
2023-02-24T04:18:51.284Z,8.30
2023-02-24T04:21:23.596Z,8.70
2023-02-24T04:23:54.757Z,8.30
2023-02-24T04:26:25.389Z,8.30
2023-02-24T04:28:56.833Z,8.20
2023-02-24T04:31:27.899Z,8.30
2023-02-24T04:33:56.201Z,8.30
2023-02-24T04:36:34.406Z,8.30
2023-02-24T04:39:05.259Z,8.40
2023-02-24T04:41:33.916Z,8.20
2023-02-24T04:44:04.747Z,8.20
2023-02-24T04:46:32.965Z,8.30
2023-02-24T04:49:02.159Z,8.20
2023-02-24T04:51:34.234Z,8.20
2023-02-24T04:54:03.910Z,8.20
2023-02-24T04:56:32.158Z,8.10
2023-02-24T04:59:00.277Z,8.10
2023-02-24T05:01:29.140Z,8.10
2023-02-24T05:03:57.193Z,8.10
2023-02-24T05:06:25.779Z,8.30
2023-02-24T05:08:54.084Z,8.20
2023-02-24T05:11:23.883Z,8.20
2023-02-24T05:13:52.874Z,8.10
2023-02-24T05:16:22.334Z,8.20
2023-02-24T05:18:50.836Z,8.10
2023-02-24T05:21:36.223Z,8.10
2023-02-24T05:24:07.244Z,8.20
2023-02-24T05:26:38.791Z,8.10
2023-02-24T05:29:08.021Z,8.10
2023-02-24T05:31:37.210Z,8.10
2023-02-24T05:34:07.954Z,8.30
2023-02-24T05:36:40.204Z,8.10
2023-02-24T05:39:12.390Z,8.10
2023-02-24T05:41:43.527Z,8.10
2023-02-24T05:44:14.387Z,8.00
2023-02-24T05:46:45.059Z,8.00
2023-02-24T05:49:15.807Z,8.00
2023-02-24T05:51:54.996Z,7.90
2023-02-24T05:54:26.384Z,8.00
2023-02-24T05:56:58.040Z,7.90
2023-02-24T05:59:33.016Z,7.80
2023-02-24T06:02:07.156Z,7.80
2023-02-24T06:04:46.511Z,7.90
2023-02-24T06:07:19.621Z,7.90
2023-02-24T06:09:50.310Z,7.90
2023-02-24T06:12:21.326Z,7.90
2023-02-24T06:14:49.757Z,8.00
2023-02-24T06:17:18.999Z,8.00
2023-02-24T06:29:30.464Z,7.90
2023-02-24T06:32:08.552Z,7.90
2023-02-24T06:34:37.070Z,7.90
2023-02-24T06:37:05.231Z,7.90
2023-02-24T06:39:36.486Z,7.90
2023-02-24T06:55:27.334Z,8.00
2023-02-24T06:57:58.016Z,8.10
2023-02-24T07:00:37.454Z,8.10
2023-02-24T07:03:14.950Z,8.10
2023-02-24T07:05:50.211Z,8.20
2023-02-24T07:08:19.946Z,8.20
2023-02-24T07:10:55.953Z,8.20
2023-02-24T07:13:25.693Z,8.20
2023-02-24T07:15:55.165Z,8.30
2023-02-24T07:18:26.603Z,8.30
2023-02-24T07:29:53.138Z,8.40
2023-02-24T07:32:23.335Z,8.50
2023-02-24T07:34:51.687Z,8.50
2023-02-24T07:37:20.825Z,8.50
2023-02-24T07:39:48.923Z,8.60
2023-02-24T07:42:16.963Z,8.80
2023-02-24T07:44:49.568Z,8.70
2023-02-24T07:47:21.416Z,8.70
2023-02-24T07:49:51.177Z,8.70
2023-02-24T07:52:19.329Z,8.60
2023-02-24T07:54:50.000Z,8.70
2023-02-24T07:57:18.960Z,8.80
2023-02-24T07:59:48.268Z,8.80
2023-02-24T08:02:18.620Z,9.10
2023-02-24T08:04:51.583Z,9.00
2023-02-24T08:07:25.109Z,9.10
2023-02-24T08:10:12.307Z,9.00
2023-02-24T08:12:43.165Z,9.00
2023-02-24T08:15:22.059Z,9.00
2023-02-24T08:17:50.505Z,9.00
2023-02-24T08:20:25.347Z,9.10
2023-02-24T08:22:55.133Z,9.20
2023-02-24T08:25:25.305Z,9.40
2023-02-24T08:28:08.451Z,9.40
2023-02-24T08:30:40.957Z,9.70
2023-02-24T08:33:15.855Z,9.50
2023-02-24T08:35:45.668Z,9.60
2023-02-24T08:38:18.443Z,9.80
2023-02-24T08:40:53.715Z,9.70
2023-02-24T08:43:34.063Z,9.70
2023-02-24T08:46:12.832Z,9.90
2023-02-24T08:48:43.306Z,10.00
2023-02-24T08:51:17.820Z,10.20
2023-02-24T08:53:48.123Z,10.10
2023-02-24T08:56:24.222Z,10.20
2023-02-24T08:58:57.607Z,10.30
2023-02-24T09:01:34.570Z,10.30
2023-02-24T09:04:06.299Z,10.20
2023-02-24T09:06:43.922Z,10.20
2023-02-24T09:09:23.004Z,10.20
2023-02-24T09:11:56.862Z,10.10
2023-02-24T09:14:28.399Z,10.00
2023-02-24T09:17:06.181Z,9.90
2023-02-24T09:20:02.336Z,9.90
2023-02-24T09:22:32.933Z,10.10
2023-02-24T09:25:18.745Z,9.90
2023-02-24T09:27:52.692Z,10.00
2023-02-24T09:30:36.768Z,10.00
2023-02-24T09:33:21.358Z,10.00
2023-02-24T09:36:09.707Z,10.00
2023-02-24T09:39:01.468Z,9.90
2023-02-24T09:41:45.246Z,10.00
2023-02-24T09:44:18.437Z,10.10
2023-02-24T09:46:55.880Z,9.80
2023-02-24T09:49:25.743Z,9.80
2023-02-24T09:52:00.656Z,9.90
2023-02-24T09:54:35.391Z,9.90
2023-02-24T09:57:16.709Z,10.10
2023-02-24T10:00:01.206Z,10.70
2023-02-24T10:02:44.387Z,10.20
2023-02-24T10:05:27.318Z,10.30
2023-02-24T10:07:58.108Z,10.30
2023-02-24T10:10:35.864Z,10.50
2023-02-24T10:26:07.291Z,10.10
2023-02-24T10:28:46.028Z,10.10
2023-02-24T10:31:26.450Z,9.90
2023-02-24T10:34:00.597Z,10.30
2023-02-24T10:36:35.525Z,9.90
2023-02-24T10:39:15.594Z,9.90
2023-02-24T10:41:50.535Z,9.90
2023-02-24T10:44:24.252Z,9.80
2023-02-24T10:47:11.367Z,9.80
2023-02-24T10:49:56.855Z,9.90
2023-02-24T10:53:11.040Z,9.90
2023-02-24T10:56:02.229Z,9.90
2023-02-24T10:58:44.940Z,10.00
2023-02-24T11:01:18.711Z,9.90
2023-02-24T11:04:23.313Z,10.00
2023-02-24T11:06:55.725Z,10.00
2023-02-24T11:09:35.479Z,10.20
2023-02-24T11:12:31.297Z,10.30
2023-02-24T11:15:18.867Z,10.20
2023-02-24T11:17:50.883Z,10.40
2023-02-24T11:20:42.527Z,10.40
2023-02-24T11:23:17.404Z,10.50
2023-02-24T11:25:49.499Z,10.60
2023-02-24T11:28:34.784Z,10.70
2023-02-24T11:31:21.873Z,10.90
2023-02-24T11:34:00.971Z,11.00
2023-02-24T11:36:39.534Z,11.10
2023-02-24T11:39:38.934Z,11.10
2023-02-24T11:42:13.293Z,11.10
2023-02-24T11:44:50.767Z,11.40
2023-02-24T11:47:28.481Z,11.30
2023-02-24T11:50:17.601Z,11.60
2023-02-24T11:52:49.362Z,11.30
2023-02-24T11:55:28.309Z,11.30
2023-02-24T11:58:01.356Z,11.30
2023-02-24T12:00:34.578Z,11.20
2023-02-24T12:03:13.645Z,11.20
2023-02-24T12:05:47.337Z,11.10
2023-02-24T12:08:25.691Z,11.20
2023-02-24T12:10:59.953Z,11.20
2023-02-24T12:13:33.951Z,11.30
2023-02-24T12:16:08.801Z,11.40
2023-02-24T12:18:41.029Z,11.40
2023-02-24T12:21:15.976Z,11.50
2023-02-24T12:23:46.052Z,11.40
2023-02-24T12:26:20.933Z,11.60
2023-02-24T12:29:27.902Z,11.60
2023-02-24T12:32:05.695Z,11.90
2023-02-24T12:34:46.202Z,12.10
2023-02-24T12:37:35.066Z,12.30
2023-02-24T12:40:16.397Z,12.10
2023-02-24T12:42:50.361Z,12.00
2023-02-24T12:45:23.185Z,11.60
2023-02-24T12:48:06.805Z,11.40
2023-02-24T12:50:49.345Z,11.20
2023-02-24T12:53:24.692Z,10.90
2023-02-24T12:56:04.388Z,10.80
2023-02-24T12:58:35.784Z,10.80
2023-02-24T13:01:13.082Z,10.80
2023-02-24T13:03:58.962Z,10.80
2023-02-24T13:06:43.330Z,10.80
2023-02-24T13:09:21.749Z,10.80
2023-02-24T13:11:57.733Z,10.80
2023-02-24T13:14:31.728Z,10.80
2023-02-24T13:17:17.516Z,11.10
2023-02-24T13:19:45.927Z,11.00
2023-02-24T13:22:30.785Z,11.00
2023-02-24T13:25:04.356Z,11.10
2023-02-24T13:27:36.198Z,11.20
2023-02-24T13:30:24.686Z,11.10
2023-02-24T13:33:02.559Z,11.00
2023-02-24T13:35:34.256Z,11.10
2023-02-24T13:38:26.178Z,11.00
2023-02-24T13:40:54.197Z,11.00
2023-02-24T13:43:26.046Z,10.90
2023-02-24T13:46:00.901Z,10.90
2023-02-24T13:48:52.752Z,10.70
2023-02-24T13:51:39.532Z,10.80
2023-02-24T13:54:27.202Z,10.60
2023-02-24T13:56:59.160Z,10.30
2023-02-24T13:59:49.609Z,10.20
2023-02-24T14:02:20.799Z,10.20
2023-02-24T14:04:51.689Z,10.10
2023-02-24T14:07:24.509Z,10.30
2023-02-24T14:09:57.729Z,10.00
2023-02-24T14:12:27.975Z,10.00
2023-02-24T14:14:57.190Z,10.00
2023-02-24T14:17:28.810Z,10.00
2023-02-24T14:20:08.990Z,10.00
2023-02-24T14:22:45.168Z,10.10
2023-02-24T14:25:16.129Z,10.10
2023-02-24T14:27:47.097Z,10.10
2023-02-24T14:30:28.535Z,10.00
2023-02-24T14:32:57.176Z,10.00
2023-02-24T14:35:32.994Z,10.00
2023-02-24T14:38:02.385Z,10.00
2023-02-24T14:40:33.433Z,9.90
2023-02-24T14:43:03.762Z,9.80
2023-02-24T14:45:32.294Z,9.80
2023-02-24T14:48:00.615Z,9.70
2023-02-24T14:50:31.531Z,9.70
2023-02-24T14:53:05.021Z,9.90
2023-02-24T14:55:38.617Z,9.50
2023-02-24T14:58:14.449Z,9.60
2023-02-24T15:00:49.474Z,9.70
2023-02-24T15:03:22.483Z,9.80
2023-02-24T15:05:53.623Z,9.60
2023-02-24T15:08:33.009Z,9.70
2023-02-24T15:11:11.882Z,9.60
2023-02-24T15:13:44.680Z,9.60
2023-02-24T15:16:15.580Z,9.60
2023-02-24T15:18:44.782Z,9.40
2023-02-24T15:21:21.945Z,9.50
2023-02-24T15:23:51.102Z,9.40
2023-02-24T15:26:30.759Z,9.60
2023-02-24T15:29:02.594Z,9.40
2023-02-24T15:31:32.321Z,9.40
2023-02-24T15:34:03.673Z,9.50
2023-02-24T15:36:35.131Z,9.40
2023-02-24T15:39:07.018Z,9.40
2023-02-24T15:41:45.356Z,9.40
2023-02-24T15:44:38.120Z,9.40
2023-02-24T15:47:20.316Z,9.40
2023-02-24T15:49:48.823Z,9.30
2023-02-24T15:52:19.132Z,9.20
2023-02-24T15:54:48.091Z,9.20
2023-02-24T15:57:20.065Z,9.40
2023-02-24T15:59:48.991Z,9.00
2023-02-24T16:02:19.841Z,9.20
2023-02-24T16:04:49.662Z,9.10
2023-02-24T16:07:21.013Z,9.00
2023-02-24T16:09:51.927Z,9.00
2023-02-24T16:12:25.123Z,9.00
2023-02-24T16:14:56.391Z,9.00
2023-02-24T16:17:31.936Z,8.90
2023-02-24T16:20:00.446Z,8.80
2023-02-24T16:22:29.823Z,8.80
2023-02-24T16:24:58.113Z,8.70
2023-02-24T16:27:30.006Z,8.90
2023-02-24T16:29:59.908Z,8.80
2023-02-24T16:32:28.625Z,8.80
2023-02-24T16:34:57.318Z,8.80
2023-02-24T16:37:28.955Z,8.80
2023-02-24T16:39:57.359Z,9.00
2023-02-24T16:45:16.700Z,8.70
2023-02-24T16:47:45.388Z,8.80
2023-02-24T16:50:21.549Z,8.60
2023-02-24T16:52:50.787Z,8.60
2023-02-24T16:55:19.591Z,8.50
2023-02-24T16:57:48.186Z,8.40
2023-02-24T17:00:23.840Z,8.40
2023-02-24T17:02:52.786Z,8.40
2023-02-24T17:05:25.166Z,8.30
2023-02-24T17:07:54.894Z,8.40
2023-02-24T17:10:24.594Z,8.30
2023-02-24T17:12:53.839Z,8.60
2023-02-24T17:15:27.338Z,8.30
2023-02-24T17:17:55.941Z,8.30
2023-02-24T17:20:23.987Z,8.30
2023-02-24T17:22:52.711Z,8.20
2023-02-24T17:25:24.673Z,8.20
2023-02-24T17:27:53.800Z,8.30
2023-02-24T17:30:25.948Z,8.20
2023-02-24T17:32:54.025Z,8.20
2023-02-24T17:35:22.791Z,8.20
2023-02-24T17:37:50.901Z,8.10
2023-02-24T17:40:19.959Z,8.10
2023-02-24T17:42:48.648Z,8.10
2023-02-24T17:45:17.250Z,8.10
2023-02-24T17:47:47.373Z,8.10
2023-02-24T17:50:15.514Z,8.20
2023-02-24T17:52:44.216Z,8.10
2023-02-24T17:55:13.002Z,8.10
2023-02-24T17:57:41.110Z,8.00
2023-02-24T18:00:11.360Z,8.00
2023-02-24T18:02:43.187Z,8.00
2023-02-24T18:05:12.700Z,8.00
2023-02-24T18:07:40.601Z,8.00
2023-02-24T18:10:09.603Z,8.10
2023-02-24T18:12:37.641Z,8.00
2023-02-24T18:15:08.896Z,8.30
2023-02-24T18:17:38.349Z,7.90
2023-02-24T18:20:08.406Z,7.90
2023-02-24T18:22:38.431Z,7.90
2023-02-24T18:25:07.541Z,7.90
2023-02-24T18:27:36.398Z,8.00
2023-02-24T18:30:06.796Z,7.90
2023-02-24T18:32:35.324Z,7.90
2023-02-24T18:35:03.508Z,7.90
2023-02-24T18:37:32.867Z,7.90
2023-02-24T18:40:02.263Z,7.90
2023-02-24T18:42:33.902Z,7.90
2023-02-24T18:45:01.993Z,8.10
2023-02-24T18:47:30.483Z,7.90
2023-02-24T18:49:58.547Z,7.90
2023-02-24T18:52:28.251Z,7.80
2023-02-24T18:54:56.642Z,7.80
2023-02-24T18:57:26.075Z,7.80
2023-02-24T18:59:54.601Z,7.80
2023-02-24T19:02:22.676Z,7.80
2023-02-24T19:04:51.447Z,7.80
2023-02-24T19:07:21.849Z,7.80
2023-02-24T19:09:51.220Z,7.80
2023-02-24T19:12:20.913Z,7.80
2023-02-24T19:14:53.345Z,7.90
2023-02-24T19:17:22.130Z,7.80
2023-02-24T19:19:50.588Z,7.70
2023-02-24T19:22:19.363Z,7.70
2023-02-24T19:24:47.440Z,7.70
2023-02-24T19:27:16.527Z,7.60
2023-02-24T19:29:44.541Z,7.90
2023-02-24T19:32:14.958Z,7.70
2023-02-24T19:34:43.254Z,7.60
2023-02-24T19:37:12.053Z,7.60
2023-02-24T19:39:40.106Z,7.60
2023-02-24T19:42:08.760Z,7.60
2023-02-24T19:44:39.148Z,7.60
2023-02-24T19:47:08.749Z,7.50
2023-02-24T19:49:38.446Z,7.50
2023-02-24T19:52:06.530Z,7.50
2023-02-24T19:54:34.991Z,7.50
2023-02-24T19:57:03.764Z,7.50
2023-02-24T19:59:32.329Z,7.60
2023-02-24T20:02:01.131Z,7.50
2023-02-24T20:04:30.417Z,8.20
2023-02-24T20:06:59.828Z,7.50
2023-02-24T20:09:28.186Z,7.50
2023-02-24T20:11:58.351Z,7.40
2023-02-24T20:14:29.923Z,7.70
2023-02-24T20:16:58.485Z,7.60
2023-02-24T20:19:26.943Z,7.60
2023-02-24T20:21:54.953Z,7.70
2023-02-24T20:24:24.678Z,7.60
2023-02-24T20:26:53.120Z,7.30
2023-02-24T20:29:22.935Z,7.50
2023-02-24T20:31:51.404Z,7.50
2023-02-24T20:34:19.568Z,7.50
2023-02-24T20:36:47.654Z,7.40
2023-02-24T20:39:16.096Z,7.50
2023-02-24T20:41:46.423Z,7.50
2023-02-24T20:44:14.485Z,7.40
2023-02-24T20:46:42.632Z,7.50
2023-02-24T20:49:14.669Z,7.40
2023-02-24T20:51:43.448Z,7.40
2023-02-24T20:54:13.450Z,7.60
2023-02-24T20:56:44.134Z,7.40
2023-02-24T20:59:15.080Z,7.30
2023-02-24T21:01:47.275Z,7.50
2023-02-24T21:04:17.618Z,7.40
2023-02-24T21:06:46.850Z,7.30
2023-02-24T21:09:15.930Z,7.30
2023-02-24T21:11:44.421Z,7.30
2023-02-24T21:14:17.824Z,7.40
2023-02-24T21:16:47.052Z,7.30
2023-02-24T21:19:16.273Z,7.30
2023-02-24T21:21:44.430Z,7.20
2023-02-24T21:28:37.199Z,7.30
2023-02-24T21:39:45.393Z,7.30
2023-02-24T21:42:13.427Z,7.20
2023-02-24T21:44:44.430Z,7.20
2023-02-24T21:47:13.327Z,7.10
2023-02-24T21:49:41.602Z,7.30
2023-02-24T21:52:11.452Z,7.30
2023-02-24T21:54:39.922Z,7.10
2023-02-24T21:57:09.362Z,7.00
2023-02-24T21:59:38.794Z,6.90
2023-02-24T22:02:07.357Z,6.90
2023-02-24T22:04:35.520Z,6.70
2023-02-24T22:07:03.716Z,6.70
2023-02-24T22:09:31.752Z,6.50
2023-02-24T22:12:00.544Z,6.80
2023-02-24T22:14:31.439Z,6.50
2023-02-24T22:17:03.129Z,6.50
2023-02-24T22:19:31.216Z,6.40
2023-02-24T22:22:00.570Z,6.40
2023-02-24T22:24:28.722Z,6.50
2023-02-24T22:26:56.976Z,6.50
2023-02-24T22:29:25.411Z,6.50
2023-02-24T22:31:54.936Z,6.40
2023-02-24T22:34:23.101Z,6.30
2023-02-24T22:36:51.433Z,6.50
2023-02-24T22:39:19.659Z,6.40
2023-02-24T22:41:51.555Z,6.30
2023-02-24T22:44:21.236Z,6.40
2023-02-24T22:46:49.574Z,6.30
2023-02-24T22:49:19.504Z,6.30
2023-02-24T22:51:49.676Z,6.40
2023-02-24T22:54:18.064Z,6.30
2023-02-24T22:56:46.124Z,6.30
2023-02-24T22:59:15.191Z,6.30
2023-02-24T23:01:43.856Z,6.30
2023-02-24T23:04:17.306Z,6.40
2023-02-24T23:06:47.976Z,6.30
2023-02-24T23:09:19.786Z,6.30
2023-02-24T23:11:48.896Z,6.30
2023-02-24T23:14:17.801Z,6.30
2023-02-24T23:16:48.330Z,6.40
2023-02-24T23:19:19.004Z,6.50
2023-02-24T23:21:50.712Z,6.30
2023-02-24T23:24:20.639Z,6.40
2023-02-24T23:26:53.775Z,6.30
2023-02-24T23:29:24.293Z,6.20
2023-02-24T23:31:52.986Z,6.20
2023-02-24T23:34:21.877Z,6.40
2023-02-24T23:36:51.407Z,6.20
2023-02-24T23:39:24.222Z,6.40
2023-02-24T23:41:56.923Z,6.20
2023-02-24T23:44:26.129Z,6.20
2023-02-24T23:46:54.956Z,6.20
2023-02-24T23:49:23.003Z,6.20
2023-02-24T23:51:52.900Z,6.30
2023-02-24T23:54:21.272Z,6.20
2023-02-24T23:56:49.740Z,6.20
2023-02-24T23:59:18.468Z,6.30
